sensor_id;sensor_type;location;lat;lon;timestamp;pressure;altitude;pressure_sealevel;temperature;humidity
18323;BME280;9287;49.456;11.064;2023-05-02T00:00:11;98168.81;;;8.99;100.00
18323;BME280;9287;49.456;11.064;2023-05-02T00:02:39;98172.25;;;9.08;100.00
18323;BME280;9287;49.456;11.064;2023-05-02T00:05:12;98165.06;;;9.04;100.00
18323;BME280;9287;49.456;11.064;2023-05-02T00:07:40;98167.34;;;9.02;100.00
18323;BME280;9287;49.456;11.064;2023-05-02T00:10:08;98163.78;;;8.89;100.00
18323;BME280;9287;49.456;11.064;2023-05-02T00:12:36;98160.59;;;8.87;100.00
18323;BME280;9287;49.456;11.064;2023-05-02T00:15:06;98157.56;;;8.89;100.00
18323;BME280;9287;49.456;11.064;2023-05-02T00:17:39;98151.31;;;8.88;100.00
18323;BME280;9287;49.456;11.064;2023-05-02T00:20:09;98156.09;;;8.91;100.00
18323;BME280;9287;49.456;11.064;2023-05-02T00:22:39;98157.88;;;8.87;100.00
18323;BME280;9287;49.456;11.064;2023-05-02T00:25:08;98152.91;;;8.89;100.00
18323;BME280;9287;49.456;11.064;2023-05-02T00:27:41;98163.56;;;8.82;100.00
18323;BME280;9287;49.456;11.064;2023-05-02T00:30:10;98161.97;;;8.81;100.00
18323;BME280;9287;49.456;11.064;2023-05-02T00:32:38;98156.72;;;8.76;100.00
18323;BME280;9287;49.456;11.064;2023-05-02T00:35:07;98160.38;;;8.80;100.00
18323;BME280;9287;49.456;11.064;2023-05-02T00:37:35;98160.25;;;8.77;100.00
18323;BME280;9287;49.456;11.064;2023-05-02T00:40:05;98159.00;;;8.74;100.00
18323;BME280;9287;49.456;11.064;2023-05-02T00:42:33;98157.59;;;8.68;100.00
18323;BME280;9287;49.456;11.064;2023-05-02T00:45:04;98153.50;;;8.62;100.00
18323;BME280;9287;49.456;11.064;2023-05-02T00:47:32;98151.25;;;8.64;100.00
18323;BME280;9287;49.456;11.064;2023-05-02T00:50:00;98153.50;;;8.62;100.00
18323;BME280;9287;49.456;11.064;2023-05-02T00:52:31;98154.19;;;8.59;100.00
18323;BME280;9287;49.456;11.064;2023-05-02T00:55:00;98164.41;;;8.62;100.00
18323;BME280;9287;49.456;11.064;2023-05-02T00:57:33;98162.16;;;8.64;100.00
18323;BME280;9287;49.456;11.064;2023-05-02T01:00:01;98167.59;;;8.64;100.00
18323;BME280;9287;49.456;11.064;2023-05-02T01:02:33;98164.88;;;8.64;100.00
18323;BME280;9287;49.456;11.064;2023-05-02T01:05:10;98163.47;;;8.58;100.00
18323;BME280;9287;49.456;11.064;2023-05-02T01:07:50;98168.25;;;8.61;100.00
18323;BME280;9287;49.456;11.064;2023-05-02T01:10:29;98170.91;;;8.49;100.00
18323;BME280;9287;49.456;11.064;2023-05-02T01:13:06;98178.88;;;8.54;100.00
18323;BME280;9287;49.456;11.064;2023-05-02T01:15:40;98188.31;;;8.56;100.00
18323;BME280;9287;49.456;11.064;2023-05-02T01:18:12;98174.56;;;8.53;100.00
18323;BME280;9287;49.456;11.064;2023-05-02T01:20:42;98178.88;;;8.54;100.00
18323;BME280;9287;49.456;11.064;2023-05-02T01:23:16;98176.63;;;8.56;100.00
18323;BME280;9287;49.456;11.064;2023-05-02T01:25:59;98179.81;;;8.58;100.00
18323;BME280;9287;49.456;11.064;2023-05-02T01:31:10;98173.03;;;8.64;100.00
18323;BME280;9287;49.456;11.064;2023-05-02T01:33:39;98175.69;;;8.52;100.00
18323;BME280;9287;49.456;11.064;2023-05-02T01:36:08;98163.91;;;8.48;100.00
18323;BME280;9287;49.456;11.064;2023-05-02T01:38:36;98169.34;;;8.48;100.00
18323;BME280;9287;49.456;11.064;2023-05-02T01:41:06;98170.47;;;8.47;100.00
18323;BME280;9287;49.456;11.064;2023-05-02T01:43:36;98166.16;;;8.46;100.00
18323;BME280;9287;49.456;11.064;2023-05-02T01:46:09;98177.69;;;8.43;100.00
18323;BME280;9287;49.456;11.064;2023-05-02T01:48:37;98174.03;;;8.38;100.00
18323;BME280;9287;49.456;11.064;2023-05-02T01:51:07;98172.44;;;8.37;100.00
18323;BME280;9287;49.456;11.064;2023-05-02T01:53:37;98182.22;;;8.38;100.00
18323;BME280;9287;49.456;11.064;2023-05-02T01:56:06;98178.34;;;8.40;100.00
18323;BME280;9287;49.456;11.064;2023-05-02T01:58:35;98181.53;;;8.42;100.00
18323;BME280;9287;49.456;11.064;2023-05-02T02:01:05;98182.59;;;8.28;100.00
18323;BME280;9287;49.456;11.064;2023-05-02T02:03:35;98175.16;;;8.37;100.00
18323;BME280;9287;49.456;11.064;2023-05-02T02:06:04;98175.84;;;8.34;100.00
18323;BME280;9287;49.456;11.064;2023-05-02T02:08:33;98173.50;;;8.24;100.00
18323;BME280;9287;49.456;11.064;2023-05-02T02:11:07;98180.72;;;8.20;100.00
18323;BME280;9287;49.456;11.064;2023-05-02T02:13:38;98182.03;;;8.14;100.00
18323;BME280;9287;49.456;11.064;2023-05-02T02:16:11;98175.94;;;8.17;100.00
18323;BME280;9287;49.456;11.064;2023-05-02T02:18:42;98181.38;;;8.17;100.00
18323;BME280;9287;49.456;11.064;2023-05-02T02:21:15;98189.06;;;8.15;100.00
18323;BME280;9287;49.456;11.064;2023-05-02T02:23:46;98193.59;;;8.11;100.00
18323;BME280;9287;49.456;11.064;2023-05-02T02:26:16;98184.97;;;8.09;100.00
18323;BME280;9287;49.456;11.064;2023-05-02T02:28:46;98188.34;;;8.06;100.00
18323;BME280;9287;49.456;11.064;2023-05-02T02:31:14;98196.50;;;8.06;100.00
18323;BME280;9287;49.456;11.064;2023-05-02T02:33:43;98200.34;;;8.05;100.00
18323;BME280;9287;49.456;11.064;2023-05-02T02:36:14;98202.34;;;7.96;100.00
18323;BME280;9287;49.456;11.064;2023-05-02T02:38:49;98204.38;;;7.99;100.00
18323;BME280;9287;49.456;11.064;2023-05-02T02:41:26;98201.00;;;8.02;100.00
18323;BME280;9287;49.456;11.064;2023-05-02T02:43:59;98202.78;;;7.98;100.00
18323;BME280;9287;49.456;11.064;2023-05-02T02:46:40;98203.13;;;7.96;100.00
18323;BME280;9287;49.456;11.064;2023-05-02T02:49:21;98207.25;;;8.02;100.00
18323;BME280;9287;49.456;11.064;2023-05-02T02:51:58;98222.25;;;8.09;100.00
18323;BME280;9287;49.456;11.064;2023-05-02T02:54:34;98224.97;;;8.09;100.00
18323;BME280;9287;49.456;11.064;2023-05-02T02:57:09;98225.94;;;8.04;100.00
18323;BME280;9287;49.456;11.064;2023-05-02T02:59:50;98233.38;;;7.95;100.00
18323;BME280;9287;49.456;11.064;2023-05-02T03:02:26;98231.63;;;7.90;100.00
18323;BME280;9287;49.456;11.064;2023-05-02T03:04:57;98239.47;;;7.92;100.00
18323;BME280;9287;49.456;11.064;2023-05-02T03:07:26;98243.50;;;7.86;100.00
18323;BME280;9287;49.456;11.064;2023-05-02T03:09:54;98243.81;;;7.84;100.00
18323;BME280;9287;49.456;11.064;2023-05-02T03:12:23;98254.41;;;7.77;100.00
18323;BME280;9287;49.456;11.064;2023-05-02T03:14:51;98256.50;;;7.72;100.00
18323;BME280;9287;49.456;11.064;2023-05-02T03:17:19;98268.03;;;7.68;100.00
18323;BME280;9287;49.456;11.064;2023-05-02T03:19:51;98263.88;;;7.62;100.00
18323;BME280;9287;49.456;11.064;2023-05-02T03:22:20;98278.81;;;7.56;100.00
18323;BME280;9287;49.456;11.064;2023-05-02T03:24:48;98275.78;;;7.49;100.00
18323;BME280;9287;49.456;11.064;2023-05-02T03:27:15;98275.78;;;7.49;100.00
18323;BME280;9287;49.456;11.064;2023-05-02T03:29:43;98273.91;;;7.41;100.00
18323;BME280;9287;49.456;11.064;2023-05-02T03:32:11;98280.44;;;7.40;100.00
18323;BME280;9287;49.456;11.064;2023-05-02T03:34:39;98282.34;;;7.48;100.00
18323;BME280;9287;49.456;11.064;2023-05-02T03:37:07;98285.03;;;7.48;100.00
18323;BME280;9287;49.456;11.064;2023-05-02T03:39:36;98271.66;;;7.43;100.00
18323;BME280;9287;49.456;11.064;2023-05-02T03:42:04;98274.81;;;7.45;100.00
18323;BME280;9287;49.456;11.064;2023-05-02T03:44:32;98274.38;;;7.43;100.00
18323;BME280;9287;49.456;11.064;2023-05-02T03:47:00;98275.50;;;7.42;100.00
18323;BME280;9287;49.456;11.064;2023-05-02T03:49:28;98276.41;;;7.46;100.00
18323;BME280;9287;49.456;11.064;2023-05-02T03:51:56;98274.34;;;7.52;100.00
18323;BME280;9287;49.456;11.064;2023-05-02T03:54:24;98281.53;;;7.56;100.00
18323;BME280;9287;49.456;11.064;2023-05-02T03:56:53;98274.63;;;7.59;100.00
18323;BME280;9287;49.456;11.064;2023-05-02T03:59:21;98287.13;;;7.51;100.00
18323;BME280;9287;49.456;11.064;2023-05-02T04:01:49;98275.56;;;7.63;100.00
18323;BME280;9287;49.456;11.064;2023-05-02T04:04:17;98292.03;;;7.66;100.00
18323;BME280;9287;49.456;11.064;2023-05-02T04:06:45;98288.66;;;7.69;100.00
18323;BME280;9287;49.456;11.064;2023-05-02T04:09:14;98292.59;;;7.81;100.00
18323;BME280;9287;49.456;11.064;2023-05-02T04:11:42;98301.53;;;7.90;100.00
18323;BME280;9287;49.456;11.064;2023-05-02T04:14:11;98298.09;;;8.01;100.00
18323;BME280;9287;49.456;11.064;2023-05-02T04:16:39;98297.97;;;7.98;100.00
18323;BME280;9287;49.456;11.064;2023-05-02T04:19:07;98300.81;;;8.01;100.00
18323;BME280;9287;49.456;11.064;2023-05-02T04:21:35;98304.63;;;8.09;100.00
18323;BME280;9287;49.456;11.064;2023-05-02T04:24:04;98305.84;;;8.20;100.00
18323;BME280;9287;49.456;11.064;2023-05-02T04:26:32;98305.84;;;8.20;100.00
18323;BME280;9287;49.456;11.064;2023-05-02T04:29:00;98315.44;;;8.26;100.00
18323;BME280;9287;49.456;11.064;2023-05-02T04:31:31;98308.69;;;8.32;100.00
18323;BME280;9287;49.456;11.064;2023-05-02T04:33:59;98321.44;;;8.41;100.00
18323;BME280;9287;49.456;11.064;2023-05-02T04:36:27;98328.41;;;8.50;100.00
18323;BME280;9287;49.456;11.064;2023-05-02T04:38:54;98324.47;;;8.48;100.00
18323;BME280;9287;49.456;11.064;2023-05-02T04:41:22;98335.41;;;8.60;100.00
18323;BME280;9287;49.456;11.064;2023-05-02T04:43:50;98332.38;;;8.61;100.00
18323;BME280;9287;49.456;11.064;2023-05-02T04:46:18;98331.81;;;8.68;100.00
18323;BME280;9287;49.456;11.064;2023-05-02T04:48:47;98336.91;;;8.78;100.00
18323;BME280;9287;49.456;11.064;2023-05-02T04:51:16;98343.28;;;8.82;100.00
18323;BME280;9287;49.456;11.064;2023-05-02T04:53:44;98341.00;;;8.84;100.00
18323;BME280;9287;49.456;11.064;2023-05-02T04:56:14;98345.94;;;8.91;100.00
18323;BME280;9287;49.456;11.064;2023-05-02T04:58:44;98348.31;;;8.92;100.00
18323;BME280;9287;49.456;11.064;2023-05-02T05:01:11;98349.25;;;8.96;100.00
18323;BME280;9287;49.456;11.064;2023-05-02T05:03:40;98354.03;;;8.99;100.00
18323;BME280;9287;49.456;11.064;2023-05-02T05:06:09;98351.75;;;9.01;100.00
18323;BME280;9287;49.456;11.064;2023-05-02T05:08:38;98357.47;;;9.08;100.00
18323;BME280;9287;49.456;11.064;2023-05-02T05:11:08;98362.06;;;9.17;100.00
18323;BME280;9287;49.456;11.064;2023-05-02T05:13:37;98355.03;;;9.16;100.00
18323;BME280;9287;49.456;11.064;2023-05-02T05:16:06;98367.97;;;9.19;100.00
18323;BME280;9287;49.456;11.064;2023-05-02T05:18:34;98370.09;;;9.34;100.00
18323;BME280;9287;49.456;11.064;2023-05-02T05:21:07;98377.53;;;9.25;100.00
18323;BME280;9287;49.456;11.064;2023-05-02T05:23:37;98375.28;;;9.27;100.00
18323;BME280;9287;49.456;11.064;2023-05-02T05:26:13;98380.06;;;9.30;100.00
18323;BME280;9287;49.456;11.064;2023-05-02T05:28:45;98381.69;;;9.43;100.00
18323;BME280;9287;49.456;11.064;2023-05-02T05:31:17;98385.84;;;9.61;100.00
18323;BME280;9287;49.456;11.064;2023-05-02T05:33:45;98381.47;;;9.69;100.00
18323;BME280;9287;49.456;11.064;2023-05-02T05:36:15;98387.16;;;9.76;100.00
18323;BME280;9287;49.456;11.064;2023-05-02T05:38:50;98383.63;;;9.75;100.00
18323;BME280;9287;49.456;11.064;2023-05-02T05:41:21;98394.31;;;9.81;100.00
18323;BME280;9287;49.456;11.064;2023-05-02T05:43:53;98389.22;;;9.91;100.00
18323;BME280;9287;49.456;11.064;2023-05-02T05:46:22;98401.19;;;9.99;100.00
18323;BME280;9287;49.456;11.064;2023-05-02T05:48:50;98406.19;;;10.09;100.00
18323;BME280;9287;49.456;11.064;2023-05-02T05:51:19;98403.25;;;10.14;100.00
18323;BME280;9287;49.456;11.064;2023-05-02T05:53:54;98407.13;;;10.13;100.00
18323;BME280;9287;49.456;11.064;2023-05-02T05:56:25;98404.84;;;10.15;100.00
18323;BME280;9287;49.456;11.064;2023-05-02T05:58:53;98410.56;;;10.22;100.00
18323;BME280;9287;49.456;11.064;2023-05-02T06:01:22;98409.88;;;10.25;100.00
18323;BME280;9287;49.456;11.064;2023-05-02T06:03:50;98402.00;;;10.11;100.00
18323;BME280;9287;49.456;11.064;2023-05-02T06:06:18;98409.88;;;10.25;100.00
18323;BME280;9287;49.456;11.064;2023-05-02T06:08:51;98418.53;;;10.27;100.00
18323;BME280;9287;49.456;11.064;2023-05-02T06:11:21;98418.78;;;10.34;100.00
18323;BME280;9287;49.456;11.064;2023-05-02T06:13:50;98423.66;;;10.29;100.00
18323;BME280;9287;49.456;11.064;2023-05-02T06:16:19;98427.63;;;10.19;100.00
18323;BME280;9287;49.456;11.064;2023-05-02T06:18:49;98431.47;;;10.18;100.00
18323;BME280;9287;49.456;11.064;2023-05-02T06:21:18;98441.03;;;10.24;100.00
18323;BME280;9287;49.456;11.064;2023-05-02T06:23:46;98441.16;;;10.28;100.00
18323;BME280;9287;49.456;11.064;2023-05-02T06:26:13;98444.91;;;10.23;100.00
18323;BME280;9287;49.456;11.064;2023-05-02T06:28:44;98445.81;;;10.27;100.00
18323;BME280;9287;49.456;11.064;2023-05-02T06:31:11;98460.88;;;10.33;100.00
18323;BME280;9287;49.456;11.064;2023-05-02T06:33:39;98462.22;;;10.27;100.00
18323;BME280;9287;49.456;11.064;2023-05-02T06:36:08;98465.66;;;10.36;100.00
18323;BME280;9287;49.456;11.064;2023-05-02T06:38:36;98465.41;;;10.29;100.00
18323;BME280;9287;49.456;11.064;2023-05-02T06:41:04;98474.31;;;10.38;100.00
18323;BME280;9287;49.456;11.064;2023-05-02T06:43:32;98484.28;;;10.34;100.00
18323;BME280;9287;49.456;11.064;2023-05-02T06:46:01;98477.03;;;10.38;100.00
18323;BME280;9287;49.456;11.064;2023-05-02T06:48:28;98482.25;;;10.43;100.00
18323;BME280;9287;49.456;11.064;2023-05-02T06:50:56;98487.03;;;10.46;100.00
18323;BME280;9287;49.456;11.064;2023-05-02T06:53:24;98480.22;;;10.53;100.00
18323;BME280;9287;49.456;11.064;2023-05-02T06:55:52;98493.66;;;10.58;100.00
18323;BME280;9287;49.456;11.064;2023-05-02T06:58:20;98497.75;;;10.64;100.00
18323;BME280;9287;49.456;11.064;2023-05-02T07:00:48;98504.81;;;10.65;100.00
18323;BME280;9287;49.456;11.064;2023-05-02T07:03:17;98501.63;;;10.63;100.00
18323;BME280;9287;49.456;11.064;2023-05-02T07:05:45;98499.34;;;10.65;100.00
18323;BME280;9287;49.456;11.064;2023-05-02T07:08:13;98510.75;;;10.67;100.00
18323;BME280;9287;49.456;11.064;2023-05-02T07:10:40;98516.53;;;10.65;100.00
18323;BME280;9287;49.456;11.064;2023-05-02T07:13:08;98516.88;;;10.64;100.00
18323;BME280;9287;49.456;11.064;2023-05-02T07:15:36;98518.00;;;10.63;100.00
18323;BME280;9287;49.456;11.064;2023-05-02T07:18:04;98517.88;;;10.59;100.00
18323;BME280;9287;49.456;11.064;2023-05-02T07:20:33;98528.94;;;10.63;100.00
18323;BME280;9287;49.456;11.064;2023-05-02T07:23:01;98522.00;;;10.65;100.00
18323;BME280;9287;49.456;11.064;2023-05-02T07:25:30;98517.00;;;10.55;100.00
18323;BME280;9287;49.456;11.064;2023-05-02T07:27:57;98521.66;;;10.55;100.00
18323;BME280;9287;49.456;11.064;2023-05-02T07:30:25;98533.72;;;10.66;100.00
18323;BME280;9287;49.456;11.064;2023-05-02T07:32:53;98533.25;;;10.64;100.00
18323;BME280;9287;49.456;11.064;2023-05-02T07:35:21;98541.25;;;10.81;100.00
18323;BME280;9287;49.456;11.064;2023-05-02T07:37:52;98528.06;;;10.83;100.00
18323;BME280;9287;49.456;11.064;2023-05-02T07:40:20;98536.38;;;10.99;100.00
18323;BME280;9287;49.456;11.064;2023-05-02T07:42:48;98538.28;;;11.10;100.00
18323;BME280;9287;49.456;11.064;2023-05-02T07:45:16;98545.56;;;10.94;100.00
18323;BME280;9287;49.456;11.064;2023-05-02T07:47:45;98547.53;;;11.06;100.00
18323;BME280;9287;49.456;11.064;2023-05-02T07:50:13;98546.94;;;11.12;100.00
18323;BME280;9287;49.456;11.064;2023-05-02T07:52:41;98558.13;;;11.20;100.00
18323;BME280;9287;49.456;11.064;2023-05-02T07:55:10;98555.59;;;11.39;100.00
18323;BME280;9287;49.456;11.064;2023-05-02T07:57:38;98556.41;;;11.39;100.00
18323;BME280;9287;49.456;11.064;2023-05-02T08:00:07;98556.06;;;11.29;100.00
18323;BME280;9287;49.456;11.064;2023-05-02T08:02:35;98568.59;;;11.05;100.00
18323;BME280;9287;49.456;11.064;2023-05-02T08:05:04;98569.50;;;11.09;100.00
18323;BME280;9287;49.456;11.064;2023-05-02T08:07:33;98576.09;;;10.96;100.00
18323;BME280;9287;49.456;11.064;2023-05-02T08:10:05;98579.63;;;10.85;100.00
18323;BME280;9287;49.456;11.064;2023-05-02T08:12:38;98572.22;;;10.73;100.00
18323;BME280;9287;49.456;11.064;2023-05-02T08:15:08;98577.69;;;10.73;100.00
18323;BME280;9287;49.456;11.064;2023-05-02T08:17:40;98579.25;;;10.74;100.00
18323;BME280;9287;49.456;11.064;2023-05-02T08:20:09;98578.47;;;10.73;100.00
18323;BME280;9287;49.456;11.064;2023-05-02T08:22:37;98585.41;;;10.71;100.00
18323;BME280;9287;49.456;11.064;2023-05-02T08:25:05;98582.09;;;10.77;100.00
18323;BME280;9287;49.456;11.064;2023-05-02T08:27:33;98580.16;;;10.78;100.00
18323;BME280;9287;49.456;11.064;2023-05-02T08:30:04;98591.22;;;10.81;100.00
18323;BME280;9287;49.456;11.064;2023-05-02T08:32:33;98582.00;;;10.86;100.00
18323;BME280;9287;49.456;11.064;2023-05-02T08:35:02;98582.34;;;10.97;100.00
18323;BME280;9287;49.456;11.064;2023-05-02T08:37:31;98583.88;;;11.06;100.00
18323;BME280;9287;49.456;11.064;2023-05-02T08:39:59;98582.94;;;11.14;100.00
18323;BME280;9287;49.456;11.064;2023-05-02T08:42:28;98583.84;;;11.19;100.00
18323;BME280;9287;49.456;11.064;2023-05-02T08:44:58;98590.00;;;11.28;100.00
18323;BME280;9287;49.456;11.064;2023-05-02T08:47:28;98592.84;;;11.56;100.00
18323;BME280;9287;49.456;11.064;2023-05-02T08:49:59;98589.84;;;11.85;100.00
18323;BME280;9287;49.456;11.064;2023-05-02T08:52:28;98595.78;;;12.27;100.00
18323;BME280;9287;49.456;11.064;2023-05-02T08:54:57;98601.03;;;12.92;100.00
18323;BME280;9287;49.456;11.064;2023-05-02T08:57:28;98604.34;;;13.79;100.00
18323;BME280;9287;49.456;11.064;2023-05-02T08:59:56;98598.75;;;15.37;100.00
18323;BME280;9287;49.456;11.064;2023-05-02T09:02:44;98593.59;;;17.70;92.40
18323;BME280;9287;49.456;11.064;2023-05-02T09:05:18;98603.50;;;20.28;69.35
18323;BME280;9287;49.456;11.064;2023-05-02T09:07:47;98598.50;;;20.85;61.43
18323;BME280;9287;49.456;11.064;2023-05-02T09:10:16;98619.22;;;21.81;56.81
18323;BME280;9287;49.456;11.064;2023-05-02T09:12:44;98611.22;;;22.58;54.05
18323;BME280;9287;49.456;11.064;2023-05-02T09:15:13;98609.56;;;20.93;55.93
18323;BME280;9287;49.456;11.064;2023-05-02T09:17:47;98612.56;;;20.50;55.47
18323;BME280;9287;49.456;11.064;2023-05-02T09:20:15;98612.34;;;22.95;50.31
18323;BME280;9287;49.456;11.064;2023-05-02T09:22:47;98617.03;;;22.37;49.44
18323;BME280;9287;49.456;11.064;2023-05-02T09:25:16;98618.84;;;23.38;48.25
18323;BME280;9287;49.456;11.064;2023-05-02T09:27:50;98608.44;;;24.32;45.87
18323;BME280;9287;49.456;11.064;2023-05-02T09:30:20;98606.53;;;25.53;42.48
18323;BME280;9287;49.456;11.064;2023-05-02T09:32:51;98621.03;;;23.00;45.17
18323;BME280;9287;49.456;11.064;2023-05-02T09:35:21;98625.38;;;23.28;46.95
18323;BME280;9287;49.456;11.064;2023-05-02T09:37:50;98617.63;;;23.16;44.83
18323;BME280;9287;49.456;11.064;2023-05-02T09:40:20;98617.66;;;21.80;47.93
18323;BME280;9287;49.456;11.064;2023-05-02T09:42:48;98616.88;;;21.76;49.46
18323;BME280;9287;49.456;11.064;2023-05-02T09:45:21;98611.16;;;20.90;50.69
18323;BME280;9287;49.456;11.064;2023-05-02T09:47:51;98610.41;;;23.69;46.42
18323;BME280;9287;49.456;11.064;2023-05-02T09:50:31;98619.25;;;23.13;46.23
18323;BME280;9287;49.456;11.064;2023-05-02T09:53:01;98615.22;;;22.57;46.88
18323;BME280;9287;49.456;11.064;2023-05-02T09:55:30;98611.63;;;21.40;50.04
18323;BME280;9287;49.456;11.064;2023-05-02T09:57:58;98618.66;;;19.24;56.10
18323;BME280;9287;49.456;11.064;2023-05-02T10:00:40;98620.78;;;18.37;64.31
18323;BME280;9287;49.456;11.064;2023-05-02T10:03:15;98633.63;;;17.46;70.44
18323;BME280;9287;49.456;11.064;2023-05-02T10:05:44;98630.31;;;18.43;70.25
18323;BME280;9287;49.456;11.064;2023-05-02T10:08:13;98635.75;;;18.25;71.18
18323;BME280;9287;49.456;11.064;2023-05-02T10:10:46;98632.34;;;17.84;72.97
18323;BME280;9287;49.456;11.064;2023-05-02T10:13:19;98626.94;;;17.98;74.53
18323;BME280;9287;49.456;11.064;2023-05-02T10:15:50;98629.59;;;18.60;70.65
18323;BME280;9287;49.456;11.064;2023-05-02T10:18:26;98626.59;;;18.11;67.73
18323;BME280;9287;49.456;11.064;2023-05-02T10:20:58;98623.22;;;18.49;67.50
18323;BME280;9287;49.456;11.064;2023-05-02T10:23:27;98617.06;;;20.01;62.19
18323;BME280;9287;49.456;11.064;2023-05-02T10:25:57;98620.81;;;20.64;54.24
18323;BME280;9287;49.456;11.064;2023-05-02T10:28:26;98630.22;;;20.84;55.31
18323;BME280;9287;49.456;11.064;2023-05-02T10:30:54;98626.03;;;21.28;52.74
18323;BME280;9287;49.456;11.064;2023-05-02T10:33:24;98623.94;;;21.84;51.22
18323;BME280;9287;49.456;11.064;2023-05-02T10:35:52;98619.47;;;21.52;50.74
18323;BME280;9287;49.456;11.064;2023-05-02T10:38:20;98607.53;;;21.56;51.33
18323;BME280;9287;49.456;11.064;2023-05-02T10:40:53;98608.69;;;21.62;50.79
18323;BME280;9287;49.456;11.064;2023-05-02T10:43:24;98610.69;;;22.02;48.81
18323;BME280;9287;49.456;11.064;2023-05-02T10:45:53;98609.78;;;22.46;47.95
18323;BME280;9287;49.456;11.064;2023-05-02T10:48:24;98602.75;;;22.35;45.66
18323;BME280;9287;49.456;11.064;2023-05-02T10:50:53;98589.63;;;22.01;46.60
18323;BME280;9287;49.456;11.064;2023-05-02T10:53:26;98593.66;;;21.97;47.45
18323;BME280;9287;49.456;11.064;2023-05-02T10:56:16;98592.44;;;21.57;49.06
18323;BME280;9287;49.456;11.064;2023-05-02T10:58:47;98590.97;;;21.45;47.98
18323;BME280;9287;49.456;11.064;2023-05-02T11:01:34;98594.63;;;21.31;47.28
18323;BME280;9287;49.456;11.064;2023-05-02T11:04:06;98590.66;;;20.70;48.37
18323;BME280;9287;49.456;11.064;2023-05-02T11:06:35;98591.16;;;21.20;47.92
18323;BME280;9287;49.456;11.064;2023-05-02T11:09:31;98590.88;;;21.56;46.72
18323;BME280;9287;49.456;11.064;2023-05-02T11:12:44;98577.91;;;20.79;46.91
18323;BME280;9287;49.456;11.064;2023-05-02T11:15:12;98577.28;;;20.50;48.42
18323;BME280;9287;49.456;11.064;2023-05-02T11:17:59;98572.66;;;20.15;47.91
18323;BME280;9287;49.456;11.064;2023-05-02T11:20:30;98580.97;;;20.96;46.73
18323;BME280;9287;49.456;11.064;2023-05-02T11:22:59;98579.78;;;22.31;44.60
18323;BME280;9287;49.456;11.064;2023-05-02T11:25:49;98569.75;;;22.67;43.53
18323;BME280;9287;49.456;11.064;2023-05-02T11:28:41;98564.47;;;22.46;44.21
18323;BME280;9287;49.456;11.064;2023-05-02T11:34:12;98560.38;;;22.54;43.29
18323;BME280;9287;49.456;11.064;2023-05-02T11:36:43;98563.09;;;22.31;43.66
18323;BME280;9287;49.456;11.064;2023-05-02T11:39:18;98561.41;;;22.37;42.88
18323;BME280;9287;49.456;11.064;2023-05-02T11:41:46;98557.03;;;22.36;42.38
18323;BME280;9287;49.456;11.064;2023-05-02T11:44:16;98570.47;;;22.10;44.05
18323;BME280;9287;49.456;11.064;2023-05-02T11:46:44;98561.09;;;21.56;44.21
18323;BME280;9287;49.456;11.064;2023-05-02T11:49:13;98568.34;;;20.07;46.18
18323;BME280;9287;49.456;11.064;2023-05-02T11:51:43;98573.16;;;19.89;47.58
18323;BME280;9287;49.456;11.064;2023-05-02T11:54:17;98574.38;;;19.38;49.66
18323;BME280;9287;49.456;11.064;2023-05-02T11:56:47;98574.72;;;18.66;51.79
18323;BME280;9287;49.456;11.064;2023-05-02T11:59:16;98575.75;;;18.29;54.20
18323;BME280;9287;49.456;11.064;2023-05-02T12:01:49;98574.53;;;17.58;59.24
18323;BME280;9287;49.456;11.064;2023-05-02T12:04:25;98582.53;;;17.70;65.15
18323;BME280;9287;49.456;11.064;2023-05-02T12:06:57;98581.25;;;17.57;72.08
18323;BME280;9287;49.456;11.064;2023-05-02T12:09:25;98585.34;;;17.26;75.98
18323;BME280;9287;49.456;11.064;2023-05-02T12:11:54;98588.91;;;16.86;80.58
18323;BME280;9287;49.456;11.064;2023-05-02T12:14:27;98593.59;;;16.48;89.21
18323;BME280;9287;49.456;11.064;2023-05-02T12:16:57;98599.94;;;16.19;96.17
18323;BME280;9287;49.456;11.064;2023-05-02T12:19:26;98589.31;;;15.87;95.91
18323;BME280;9287;49.456;11.064;2023-05-02T12:21:57;98592.34;;;16.09;99.42
18323;BME280;9287;49.456;11.064;2023-05-02T12:24:25;98601.25;;;16.99;96.49
18323;BME280;9287;49.456;11.064;2023-05-02T12:27:11;98594.72;;;18.31;79.26
18323;BME280;9287;49.456;11.064;2023-05-02T12:29:40;98583.00;;;18.66;72.14
18323;BME280;9287;49.456;11.064;2023-05-02T12:32:08;98587.28;;;18.49;66.72
18323;BME280;9287;49.456;11.064;2023-05-02T12:34:41;98590.72;;;18.25;63.70
18323;BME280;9287;49.456;11.064;2023-05-02T12:37:10;98604.69;;;17.77;63.64
18323;BME280;9287;49.456;11.064;2023-05-02T12:39:42;98607.78;;;17.65;61.89
18323;BME280;9287;49.456;11.064;2023-05-02T12:42:11;98612.03;;;17.11;57.93
18323;BME280;9287;49.456;11.064;2023-05-02T12:44:43;98612.78;;;17.08;58.52
18323;BME280;9287;49.456;11.064;2023-05-02T12:47:12;98619.69;;;16.88;59.94
18323;BME280;9287;49.456;11.064;2023-05-02T12:49:48;98630.19;;;16.45;59.91
18323;BME280;9287;49.456;11.064;2023-05-02T12:52:20;98641.38;;;16.26;60.89
18323;BME280;9287;49.456;11.064;2023-05-02T12:54:49;98657.41;;;15.90;66.74
18323;BME280;9287;49.456;11.064;2023-05-02T12:57:22;98657.88;;;15.47;77.21
18323;BME280;9287;49.456;11.064;2023-05-02T12:59:54;98659.38;;;15.41;83.45
18323;BME280;9287;49.456;11.064;2023-05-02T13:02:23;98666.41;;;14.96;88.04
18323;BME280;9287;49.456;11.064;2023-05-02T13:04:52;98672.38;;;14.79;87.81
18323;BME280;9287;49.456;11.064;2023-05-02T13:07:21;98679.19;;;14.66;90.57
18323;BME280;9287;49.456;11.064;2023-05-02T13:09:50;98680.94;;;14.54;91.14
18323;BME280;9287;49.456;11.064;2023-05-02T13:12:17;98688.16;;;14.43;89.33
18323;BME280;9287;49.456;11.064;2023-05-02T13:14:46;98682.41;;;14.33;92.05
18323;BME280;9287;49.456;11.064;2023-05-02T13:17:14;98685.50;;;14.31;94.47
18323;BME280;9287;49.456;11.064;2023-05-02T13:19:43;98685.22;;;14.36;92.25